Time,TemperatureF,DewpointF,PressureIn,WindDirection,WindDirectionDegrees,WindSpeedMPH,WindSpeedGustMPH,Humidity,HourlyPrecipIn,Conditions,Clouds,dailyrainin,SolarRadiationWatts/m^2,SoftwareType,DateUTC
2013-03-01 00:00:00,51.1,50.0,30.25,SE,136,1.0,1.0,96,0.19,,,0.22,0,Wunderground v.1.15,2013-03-01 08:00:00,
2013-03-01 00:14:00,51.1,50.3,30.26,ESE,106,2.0,2.0,97,0.07,,,0.02,0,Wunderground v.1.15,2013-03-01 08:14:00,
2013-03-01 00:23:00,51.0,50.2,30.26,SE,140,2.0,2.0,97,0.04,,,0.03,0,Wunderground v.1.15,2013-03-01 08:23:00,
2013-03-01 00:28:00,51.0,50.2,30.26,East,93,2.0,2.0,97,0.04,,,0.03,0,Wunderground v.1.15,2013-03-01 08:28:00,
2013-03-01 00:38:00,51.1,50.3,30.25,SE,134,3.0,6.0,97,0.04,,,0.04,0,Wunderground v.1.15,2013-03-01 08:38:00,
2013-03-01 00:49:00,51.1,50.3,30.25,SE,136,3.0,5.0,97,0.04,,,0.04,0,Wunderground v.1.15,2013-03-01 08:49:00,
2013-03-01 00:59:00,51.1,50.3,30.25,SSE,167,2.0,2.0,97,0.00,,,0.04,0,Wunderground v.1.15,2013-03-01 08:59:00,
2013-03-01 01:09:00,51.3,50.8,30.25,SSE,161,3.0,3.0,98,0.00,,,0.05,0,Wunderground v.1.15,2013-03-01 09:09:00,
2013-03-01 01:23:00,51.3,50.8,30.25,SSE,158,3.0,3.0,98,0.00,,,0.05,0,Wunderground v.1.15,2013-03-01 09:23:00,
2013-03-01 01:29:00,51.3,50.8,30.25,ESE,106,3.0,12.0,98,0.00,,,0.05,0,Wunderground v.1.15,2013-03-01 09:29:00,
2013-03-01 01:43:00,51.4,50.9,30.26,SSE,152,5.0,5.0,98,0.00,,,0.06,0,Wunderground v.1.15,2013-03-01 09:43:00,
2013-03-01 01:49:00,51.4,50.9,30.26,South,178,6.0,10.0,98,0.00,,,0.06,0,Wunderground v.1.15,2013-03-01 09:49:00,
2013-03-01 01:59:00,51.4,50.9,30.26,South,169,7.0,7.0,98,0.00,,,0.06,0,Wunderground v.1.15,2013-03-01 09:59:00,
2013-03-01 02:09:00,51.4,50.9,30.26,SE,136,7.0,10.0,98,0.00,,,0.06,0,Wunderground v.1.15,2013-03-01 10:09:00,
2013-03-01 02:19:00,51.4,50.9,30.25,SSE,157,8.0,8.0,98,0.00,,,0.06,0,Wunderground v.1.15,2013-03-01 10:19:00,
2013-03-01 02:29:00,51.4,50.9,30.25,SE,128,8.0,8.0,98,0.00,,,0.06,0,Wunderground v.1.15,2013-03-01 10:29:00,
2013-03-01 02:44:00,51.6,51.1,30.25,SE,136,9.0,9.0,98,0.00,,,0.07,0,Wunderground v.1.15,2013-03-01 10:44:00,
2013-03-01 02:50:00,51.6,50.8,30.25,SSE,164,10.0,10.0,97,0.00,,,0.07,0,Wunderground v.1.15,2013-03-01 10:50:00,
2013-03-01 03:04:00,51.7,50.6,30.24,SE,138,10.0,10.0,96,0.00,,,0.07,0,Wunderground v.1.15,2013-03-01 11:04:00,
2013-03-01 03:10:00,51.7,50.6,30.24,SE,136,8.0,10.0,96,0.00,,,0.07,0,Wunderground v.1.15,2013-03-01 11:10:00,
2013-03-01 03:23:00,52.0,50.6,30.25,South,179,10.0,11.0,95,0.00,,,0.07,0,Wunderground v.1.15,2013-03-01 11:23:00,
2013-03-01 03:28:00,52.0,50.3,30.25,ESE,119,9.0,12.0,94,0.00,,,0.07,0,Wunderground v.1.15,2013-03-01 11:28:00,
2013-03-01 03:39:00,52.0,50.3,30.25,SE,130,8.0,16.0,94,0.00,,,0.07,0,Wunderground v.1.15,2013-03-01 11:39:00,
2013-03-01 03:49:00,52.0,50.3,30.25,South,174,8.0,13.0,94,0.00,,,0.07,0,Wunderground v.1.15,2013-03-01 11:49:00,
2013-03-01 03:59:00,51.9,50.2,30.25,South,178,5.0,12.0,94,0.00,,,0.07,0,Wunderground v.1.15,2013-03-01 11:59:00,
2013-03-01 04:09:00,51.9,50.2,30.24,South,175,5.0,10.0,94,0.00,,,0.07,0,Wunderground v.1.15,2013-03-01 12:09:00,
2013-03-01 04:19:00,51.9,50.2,30.24,SSE,147,8.0,9.0,94,0.00,,,0.07,0,Wunderground v.1.15,2013-03-01 12:19:00,
2013-03-01 04:29:00,51.9,49.9,30.24,ESE,106,7.0,7.0,93,0.00,,,0.07,0,Wunderground v.1.15,2013-03-01 12:29:00,
2013-03-01 04:39:00,52.0,50.0,30.24,South,175,9.0,9.0,93,0.00,,,0.07,0,Wunderground v.1.15,2013-03-01 12:39:00,
2013-03-01 04:54:00,52.2,49.7,30.24,ESE,112,9.0,10.0,91,0.00,,,0.07,0,Wunderground v.1.15,2013-03-01 12:54:00,
2013-03-01 04:59:00,52.3,49.5,30.24,SSE,164,9.0,10.0,90,0.00,,,0.07,0,Wunderground v.1.15,2013-03-01 12:59:00,
2013-03-01 05:09:00,52.5,49.4,30.24,SSE,165,9.0,13.0,89,0.00,,,0.07,0,Wunderground v.1.15,2013-03-01 13:09:00,
2013-03-01 05:18:00,52.6,49.4,30.24,SSE,158,10.0,12.0,89,0.00,,,0.07,0,Wunderground v.1.15,2013-03-01 13:18:00,
2013-03-01 05:28:00,52.6,49.4,30.24,ESE,116,10.0,10.0,89,0.00,,,0.07,0,Wunderground v.1.15,2013-03-01 13:28:00,
2013-03-01 05:38:00,52.5,49.4,30.24,South,185,10.0,11.0,89,0.00,,,0.07,0,Wunderground v.1.15,2013-03-01 13:38:00,
2013-03-01 05:49:00,52.5,49.4,30.25,SE,138,10.0,10.0,89,0.00,,,0.07,0,Wunderground v.1.15,2013-03-01 13:49:00,
2013-03-01 05:59:00,52.3,49.5,30.25,SSE,148,7.0,14.0,90,0.00,,,0.07,0,Wunderground v.1.15,2013-03-01 13:59:00,
2013-03-01 06:09:00,52.3,49.5,30.24,SE,143,8.0,8.0,90,0.00,,,0.07,0,Wunderground v.1.15,2013-03-01 14:09:00,
2013-03-01 06:19:00,52.2,49.4,30.25,South,179,8.0,10.0,90,0.00,,,0.07,0,Wunderground v.1.15,2013-03-01 14:19:00,
2013-03-01 06:29:00,52.0,49.7,30.25,ESE,119,9.0,9.0,92,0.00,,,0.08,0,Wunderground v.1.15,2013-03-01 14:29:00,
2013-03-01 06:39:00,51.7,49.7,30.25,SE,140,8.0,12.0,93,0.00,,,0.08,0,Wunderground v.1.15,2013-03-01 14:39:00,
2013-03-01 06:49:00,51.6,49.9,30.25,SSE,164,8.0,9.0,94,0.00,,,0.08,0,Wunderground v.1.15,2013-03-01 14:49:00,
2013-03-01 06:59:00,51.4,49.7,30.25,South,172,9.0,11.0,94,0.00,,,0.08,0,Wunderground v.1.15,2013-03-01 14:59:00,
2013-03-01 07:14:00,51.1,49.7,30.26,SSE,150,8.0,12.0,95,0.00,,,0.08,0,Wunderground v.1.15,2013-03-01 15:14:00,
2013-03-01 07:19:00,51.0,49.9,30.26,SSE,167,8.0,12.0,96,0.00,,,0.09,5,Wunderground v.1.15,2013-03-01 15:19:00,
2013-03-01 07:29:00,50.7,49.6,30.26,South,172,8.0,13.0,96,0.00,,,0.09,5,Wunderground v.1.15,2013-03-01 15:29:00,
2013-03-01 07:39:00,50.5,49.7,30.27,SSW,200,7.0,8.0,97,0.00,,,0.09,7,Wunderground v.1.15,2013-03-01 15:39:00,
2013-03-01 07:50:00,50.5,49.7,30.28,South,189,6.0,11.0,97,0.00,,,0.10,7,Wunderground v.1.15,2013-03-01 15:50:00,
2013-03-01 08:00:00,50.7,49.9,30.28,South,184,8.0,8.0,97,0.00,,,0.10,11,Wunderground v.1.15,2013-03-01 16:00:00,
2013-03-01 08:10:00,50.7,49.9,30.28,South,181,8.0,12.0,97,0.00,,,0.10,11,Wunderground v.1.15,2013-03-01 16:10:00,
2013-03-01 08:23:00,50.4,49.6,30.28,South,169,6.0,6.0,97,0.00,,,0.11,11,Wunderground v.1.15,2013-03-01 16:23:00,
2013-03-01 08:29:00,50.4,49.6,30.28,South,186,7.0,7.0,97,0.00,,,0.11,12,Wunderground v.1.15,2013-03-01 16:29:00,
2013-03-01 08:39:00,50.4,49.9,30.28,SSW,200,8.0,20.0,98,0.00,,,0.11,25,Wunderground v.1.15,2013-03-01 16:39:00,
2013-03-01 08:48:00,50.4,49.9,30.29,SSE,165,9.0,10.0,98,0.00,,,0.11,26,Wunderground v.1.15,2013-03-01 16:48:00,
2013-03-01 08:59:00,50.4,49.9,30.29,South,184,8.0,20.0,98,0.00,,,0.11,37,Wunderground v.1.15,2013-03-01 16:59:00,
2013-03-01 09:09:00,50.4,49.9,30.28,SE,138,10.0,12.0,98,0.00,,,0.12,39,Wunderground v.1.15,2013-03-01 17:09:00,
2013-03-01 09:23:00,50.7,49.9,30.29,SSE,164,6.0,8.0,97,0.00,,,0.12,46,Wunderground v.1.15,2013-03-01 17:23:00,
2013-03-01 09:29:00,50.7,49.9,30.29,ESE,123,6.0,8.0,97,0.00,,,0.12,44,Wunderground v.1.15,2013-03-01 17:29:00,
2013-03-01 09:39:00,50.8,50.0,30.29,SSE,165,4.0,6.0,97,0.00,,,0.12,35,Wunderground v.1.15,2013-03-01 17:39:00,
2013-03-01 09:49:00,51.0,50.2,30.29,SE,136,5.0,5.0,97,0.00,,,0.12,67,Wunderground v.1.15,2013-03-01 17:49:00,
2013-03-01 09:59:00,51.1,50.3,30.29,South,171,7.0,8.0,97,0.00,,,0.12,81,Wunderground v.1.15,2013-03-01 17:59:00,
2013-03-01 10:09:00,51.3,50.5,30.29,SE,140,8.0,8.0,97,0.00,,,0.12,77,Wunderground v.1.15,2013-03-01 18:09:00,
2013-03-01 10:19:00,51.6,50.5,30.29,South,182,7.0,10.0,96,0.00,,,0.12,83,Wunderground v.1.15,2013-03-01 18:19:00,
2013-03-01 10:33:00,51.9,50.2,30.29,SE,138,8.0,8.0,94,0.00,,,0.12,90,Wunderground v.1.15,2013-03-01 18:33:00,
2013-03-01 10:39:00,52.0,50.0,30.29,SE,144,7.0,10.0,93,0.00,,,0.12,93,Wunderground v.1.15,2013-03-01 18:39:00,
2013-03-01 10:59:00,52.8,49.6,30.30,SSE,147,8.0,10.0,89,0.00,,,0.12,91,Wunderground v.1.15,2013-03-01 18:59:00,
2013-03-01 11:13:00,52.9,49.4,30.30,SSE,155,6.0,7.0,88,0.00,,,0.12,113,Wunderground v.1.15,2013-03-01 19:13:00,
2013-03-01 11:19:00,53.1,49.6,30.29,SSE,157,6.0,7.0,88,0.00,,,0.12,113,Wunderground v.1.15,2013-03-01 19:19:00,
2013-03-01 11:29:00,53.2,49.4,30.29,ESE,106,7.0,8.0,87,0.00,,,0.12,102,Wunderground v.1.15,2013-03-01 19:29:00,
2013-03-01 11:43:00,53.6,49.2,30.29,SE,137,6.0,6.0,85,0.00,,,0.12,91,Wunderground v.1.15,2013-03-01 19:43:00,
2013-03-01 11:54:00,53.9,49.5,30.30,South,175,8.0,13.0,85,0.00,,,0.12,164,Wunderground v.1.15,2013-03-01 19:54:00,
2013-03-01 11:59:00,53.9,49.2,30.30,SSE,158,8.0,13.0,84,0.00,,,0.12,139,Wunderground v.1.15,2013-03-01 19:59:00,
2013-03-01 12:09:00,54.1,49.4,30.29,SE,144,8.0,12.0,84,0.00,,,0.12,132,Wunderground v.1.15,2013-03-01 20:09:00,
2013-03-01 12:19:00,54.2,49.1,30.29,SE,134,7.0,12.0,83,0.00,,,0.12,111,Wunderground v.1.15,2013-03-01 20:19:00,
2013-03-01 12:28:00,54.4,49.0,30.29,SSE,150,7.0,11.0,82,0.00,,,0.12,148,Wunderground v.1.15,2013-03-01 20:28:00,
2013-03-01 12:38:00,54.8,48.7,30.28,South,186,8.0,10.0,80,0.00,,,0.12,211,Wunderground v.1.15,2013-03-01 20:38:00,
2013-03-01 12:49:00,55.3,48.6,30.28,SE,134,7.0,10.0,78,0.00,,,0.12,188,Wunderground v.1.15,2013-03-01 20:49:00,
2013-03-01 12:59:00,55.4,48.7,30.28,South,179,8.0,19.0,78,0.00,,,0.12,144,Wunderground v.1.15,2013-03-01 20:59:00,
2013-03-01 13:09:00,55.4,49.0,30.28,SSE,157,7.0,7.0,79,0.00,,,0.12,164,Wunderground v.1.15,2013-03-01 21:09:00,
2013-03-01 13:19:00,55.7,48.9,30.27,ESE,116,8.0,12.0,78,0.00,,,0.12,222,Wunderground v.1.15,2013-03-01 21:19:00,
2013-03-01 13:29:00,56.2,49.1,30.27,South,175,9.0,10.0,77,0.00,,,0.12,262,Wunderground v.1.15,2013-03-01 21:29:00,
2013-03-01 13:39:00,56.0,48.9,30.27,South,178,8.0,8.0,77,0.00,,,0.12,165,Wunderground v.1.15,2013-03-01 21:39:00,
2013-03-01 13:49:00,56.0,48.9,30.26,SE,145,9.0,15.0,77,0.00,,,0.12,187,Wunderground v.1.15,2013-03-01 21:49:00,
2013-03-01 13:59:00,56.0,48.9,30.26,ESE,109,9.0,9.0,77,0.00,,,0.12,176,Wunderground v.1.15,2013-03-01 21:59:00,
2013-03-01 14:09:00,56.0,48.9,30.26,SSE,155,11.0,12.0,77,0.00,,,0.12,202,Wunderground v.1.15,2013-03-01 22:09:00,
2013-03-01 14:19:00,56.2,49.1,30.26,SSE,162,9.0,10.0,77,0.00,,,0.12,174,Wunderground v.1.15,2013-03-01 22:19:00,
2013-03-01 14:29:00,56.2,49.1,30.26,SSE,155,9.0,12.0,77,0.00,,,0.12,176,Wunderground v.1.15,2013-03-01 22:29:00,
2013-03-01 14:39:00,56.3,48.8,30.26,South,174,9.0,14.0,76,0.00,,,0.12,183,Wunderground v.1.15,2013-03-01 22:39:00,
2013-03-01 14:49:00,56.5,48.7,30.26,SSE,151,8.0,9.0,75,0.00,,,0.12,165,Wunderground v.1.15,2013-03-01 22:49:00,
2013-03-01 14:59:00,56.6,49.1,30.26,SSE,151,8.0,11.0,76,0.00,,,0.12,169,Wunderground v.1.15,2013-03-01 22:59:00,
2013-03-01 15:09:00,56.5,49.4,30.26,SE,145,7.0,7.0,77,0.00,,,0.12,74,Wunderground v.1.15,2013-03-01 23:09:00,
2013-03-01 15:23:00,56.3,49.2,30.26,SSE,152,10.0,10.0,77,0.00,,,0.12,248,Wunderground v.1.15,2013-03-01 23:23:00,
2013-03-01 15:29:00,56.6,49.5,30.26,South,184,10.0,10.0,77,0.00,,,0.12,208,Wunderground v.1.15,2013-03-01 23:29:00,
2013-03-01 15:39:00,56.5,49.0,30.25,South,176,9.0,17.0,76,0.00,,,0.12,125,Wunderground v.1.15,2013-03-01 23:39:00,
2013-03-01 15:49:00,56.3,48.8,30.26,South,175,7.0,7.0,76,0.00,,,0.12,95,Wunderground v.1.15,2013-03-01 23:49:00,
2013-03-01 15:59:00,56.0,48.9,30.26,South,186,6.0,6.0,77,0.00,,,0.12,113,Wunderground v.1.15,2013-03-01 23:59:00,
2013-03-01 16:09:00,54.4,49.0,30.26,South,174,5.0,9.0,82,0.00,,,0.12,135,Wunderground v.1.15,2013-03-02 00:09:00,
2013-03-01 16:20:00,54.2,49.5,30.26,SSE,150,6.0,9.0,84,0.00,,,0.12,128,Wunderground v.1.15,2013-03-02 00:20:00,
2013-03-01 16:28:00,54.8,49.1,30.26,South,178,4.0,6.0,81,0.00,,,0.12,107,Wunderground v.1.15,2013-03-02 00:28:00,
2013-03-01 16:38:00,55.4,49.0,30.25,SSE,147,5.0,7.0,79,0.00,,,0.12,135,Wunderground v.1.15,2013-03-02 00:38:00,
2013-03-01 16:49:00,55.7,48.9,30.25,East,97,4.0,6.0,78,0.00,,,0.12,113,Wunderground v.1.15,2013-03-02 00:49:00,
2013-03-01 16:59:00,55.9,49.1,30.25,South,188,6.0,14.0,78,0.00,,,0.12,76,Wunderground v.1.15,2013-03-02 00:59:00,
2013-03-01 17:09:00,55.7,48.9,30.25,South,172,4.0,6.0,78,0.00,,,0.12,46,Wunderground v.1.15,2013-03-02 01:09:00,
2013-03-01 17:19:00,55.6,48.8,30.25,SSE,160,4.0,6.0,78,0.00,,,0.12,33,Wunderground v.1.15,2013-03-02 01:19:00,
2013-03-01 17:29:00,55.4,48.7,30.25,SSE,161,4.0,10.0,78,0.00,,,0.12,23,Wunderground v.1.15,2013-03-02 01:29:00,
2013-03-01 17:49:00,55.0,48.9,30.25,South,191,7.0,14.0,80,0.00,,,0.12,7,Wunderground v.1.15,2013-03-02 01:49:00,
2013-03-01 17:59:00,54.5,48.8,30.25,South,175,9.0,9.0,81,0.00,,,0.12,0,Wunderground v.1.15,2013-03-02 01:59:00,
2013-03-01 18:09:00,54.2,49.1,30.25,South,175,8.0,8.0,83,0.00,,,0.12,0,Wunderground v.1.15,2013-03-02 02:09:00,
2013-03-01 18:19:00,54.1,49.4,30.25,South,171,6.0,7.0,84,0.00,,,0.12,0,Wunderground v.1.15,2013-03-02 02:19:00,
2013-03-01 18:28:00,54.1,49.7,30.25,South,186,5.0,8.0,85,0.00,,,0.12,0,Wunderground v.1.15,2013-03-02 02:28:00,
2013-03-01 18:38:00,54.1,49.4,30.25,SSW,199,2.0,3.0,84,0.00,,,0.12,0,Wunderground v.1.15,2013-03-02 02:38:00,
2013-03-01 18:49:00,54.1,49.4,30.25,South,181,2.0,2.0,84,0.00,,,0.12,0,Wunderground v.1.15,2013-03-02 02:49:00,
2013-03-01 19:03:00,54.1,49.1,30.25,SSW,196,3.0,4.0,83,0.00,,,0.12,0,Wunderground v.1.15,2013-03-02 03:03:00,
2013-03-01 19:09:00,54.1,49.1,30.25,South,178,3.0,4.0,83,0.00,,,0.12,0,Wunderground v.1.15,2013-03-02 03:09:00,
2013-03-01 19:19:00,54.1,49.1,30.25,SE,128,2.0,3.0,83,0.00,,,0.12,0,Wunderground v.1.15,2013-03-02 03:19:00,
2013-03-01 19:29:00,54.1,48.7,30.25,SSE,157,2.0,2.0,82,0.00,,,0.12,0,Wunderground v.1.15,2013-03-02 03:29:00,
2013-03-01 19:44:00,53.9,48.5,30.25,SE,144,2.0,8.0,82,0.00,,,0.12,0,Wunderground v.1.15,2013-03-02 03:44:00,
2013-03-01 19:53:00,53.9,48.5,30.25,SSE,164,3.0,3.0,82,0.00,,,0.12,0,Wunderground v.1.15,2013-03-02 03:53:00,
2013-03-01 19:59:00,53.9,48.5,30.25,ESE,110,2.0,3.0,82,0.00,,,0.12,0,Wunderground v.1.15,2013-03-02 03:59:00,
2013-03-01 20:09:00,53.9,48.5,30.24,ESE,102,2.0,5.0,82,0.00,,,0.12,0,Wunderground v.1.15,2013-03-02 04:09:00,
2013-03-01 20:19:00,53.9,48.2,30.24,ESE,104,3.0,6.0,81,0.00,,,0.12,0,Wunderground v.1.15,2013-03-02 04:19:00,
2013-03-01 20:29:00,53.9,48.2,30.24,ESE,103,2.0,2.0,81,0.00,,,0.12,0,Wunderground v.1.15,2013-03-02 04:29:00,
2013-03-01 20:39:00,53.9,48.2,30.25,ESE,103,4.0,8.0,81,0.00,,,0.12,0,Wunderground v.1.15,2013-03-02 04:39:00,
2013-03-01 20:49:00,53.8,48.4,30.24,East,95,2.0,4.0,82,0.00,,,0.12,0,Wunderground v.1.15,2013-03-02 04:49:00,
2013-03-01 21:04:00,53.6,48.2,30.24,ESE,117,4.0,4.0,82,0.00,,,0.12,0,Wunderground v.1.15,2013-03-02 05:04:00,
2013-03-01 21:10:00,53.5,48.1,30.24,ENE,75,4.0,4.0,82,0.00,,,0.12,0,Wunderground v.1.15,2013-03-02 05:10:00,
2013-03-01 21:20:00,53.3,48.3,30.23,East,92,2.0,3.0,83,0.00,,,0.12,0,Wunderground v.1.15,2013-03-02 05:20:00,
2013-03-01 21:24:00,53.3,48.3,30.23,ESE,109,2.0,2.0,83,0.00,,,0.12,0,Wunderground v.1.15,2013-03-02 05:24:00,
2013-03-01 21:33:00,53.3,48.3,30.24,ESE,110,2.0,2.0,83,0.00,,,0.12,0,Wunderground v.1.15,2013-03-02 05:33:00,
2013-03-01 21:39:00,53.3,48.3,30.24,ESE,117,3.0,3.0,83,0.00,,,0.12,0,Wunderground v.1.15,2013-03-02 05:39:00,
2013-03-01 21:43:00,53.5,48.5,30.24,ESE,104,3.0,7.0,83,0.00,,,0.12,0,Wunderground v.1.15,2013-03-02 05:43:00,
2013-03-01 21:49:00,53.5,48.5,30.24,SE,128,3.0,11.0,83,0.00,,,0.12,0,Wunderground v.1.15,2013-03-02 05:49:00,
2013-03-01 21:58:00,53.5,48.5,30.24,ESE,123,4.0,4.0,83,0.00,,,0.12,0,Wunderground v.1.15,2013-03-02 05:58:00,
2013-03-01 22:09:00,53.5,48.1,30.24,ESE,106,3.0,4.0,82,0.00,,,0.12,0,Wunderground v.1.15,2013-03-02 06:09:00,
2013-03-01 22:19:00,53.5,48.1,30.24,ENE,78,2.0,2.0,82,0.00,,,0.12,0,Wunderground v.1.15,2013-03-02 06:19:00,
2013-03-01 22:29:00,53.5,48.1,30.24,ESE,107,3.0,3.0,82,0.00,,,0.12,0,Wunderground v.1.15,2013-03-02 06:29:00,
2013-03-01 22:39:00,53.6,47.9,30.24,ENE,73,3.0,8.0,81,0.00,,,0.12,0,Wunderground v.1.15,2013-03-02 06:39:00,
2013-03-01 22:49:00,53.8,47.8,30.23,ENE,71,4.0,5.0,80,0.00,,,0.12,0,Wunderground v.1.15,2013-03-02 06:49:00,
2013-03-01 22:59:00,53.9,47.5,30.23,ENE,75,5.0,8.0,79,0.00,,,0.12,0,Wunderground v.1.15,2013-03-02 06:59:00,
2013-03-01 23:09:00,54.1,47.7,30.23,East,88,6.0,12.0,79,0.00,,,0.12,0,Wunderground v.1.15,2013-03-02 07:09:00,
2013-03-01 23:19:00,54.1,47.7,30.22,ESE,102,6.0,7.0,79,0.00,,,0.12,0,Wunderground v.1.15,2013-03-02 07:19:00,
2013-03-01 23:28:00,54.1,47.7,30.22,East,85,5.0,11.0,79,0.00,,,0.12,0,Wunderground v.1.15,2013-03-02 07:28:00,
2013-03-01 23:38:00,53.9,47.9,30.22,East,82,6.0,6.0,80,0.00,,,0.12,0,Wunderground v.1.15,2013-03-02 07:38:00,
2013-03-01 23:48:00,54.1,48.1,30.22,East,89,5.0,5.0,80,0.00,,,0.12,0,Wunderground v.1.15,2013-03-02 07:48:00,
2013-03-01 23:58:00,53.9,48.2,30.22,ESE,103,4.0,6.0,81,0.00,,,0.12,0,Wunderground v.1.15,2013-03-02 07:58:00,